Time;durP1;ratioP1;P1;durP2;ratioP2;P2;SDS_P1;SDS_P2;PMS_P1;PMS_P2;Temp;Humidity;BMP_temperature;BMP_pressure;BME280_temperature;BME280_humidity;BME280_pressure;Samples;Min_cycle;Max_cycle;Signal;HPM_P1;HPM_P2
2021/04/04 00:00:37;;;;;;;9.60;5.00;;;;;;;;;;2052678;28;20207;-62
2021/04/04 00:01:37;;;;;;;9.83;5.40;;;;;;;;;;2052212;28;20203;-61
2021/04/04 00:02:38;;;;;;;15.77;5.77;;;;;;;;;;2054397;28;20191;-61
2021/04/04 00:03:38;;;;;;;13.03;5.13;;;;;;;;;;2050495;28;20211;-61
2021/04/04 00:04:38;;;;;;;20.63;5.73;;;;;;;;;;2053431;28;20209;-61
2021/04/04 00:05:39;;;;;;;14.65;4.90;;;;;;;;;;2049534;28;20274;-61
2021/04/04 00:06:39;;;;;;;10.97;5.10;;;;;;;;;;2051325;28;20226;-61
2021/04/04 00:07:39;;;;;;;12.60;5.37;;;;;;;;;;2054113;28;20190;-60
2021/04/04 00:08:40;;;;;;;14.10;5.40;;;;;;;;;;2047500;28;20179;-64
2021/04/04 00:09:40;;;;;;;13.77;5.63;;;;;;;;;;2050680;28;20233;-60
2021/04/04 00:10:40;;;;;;;17.13;5.90;;;;;;;;;;2050345;28;20191;-61
2021/04/04 00:11:41;;;;;;;12.83;5.93;;;;;;;;;;2047889;28;20235;-63
2021/04/04 00:12:41;;;;;;;13.10;5.27;;;;;;;;;;2049358;28;20179;-59
2021/04/04 00:13:42;;;;;;;13.20;5.90;;;;;;;;;;2049536;28;20175;-61
2021/04/04 00:14:42;;;;;;;11.30;5.60;;;;;;;;;;2051453;28;20555;-60
2021/04/04 00:15:42;;;;;;;13.23;5.43;;;;;;;;;;2052156;28;20270;-60
2021/04/04 00:16:43;;;;;;;17.20;5.77;;;;;;;;;;2053564;28;20655;-60
2021/04/04 00:17:43;;;;;;;17.63;5.97;;;;;;;;;;2048360;29;20218;-63
2021/04/04 00:18:44;;;;;;;11.87;5.80;;;;;;;;;;2050964;28;20666;-60
2021/04/04 00:19:44;;;;;;;12.15;6.05;;;;;;;;;;2056326;28;20182;-61
2021/04/04 00:20:44;;;;;;;11.77;6.03;;;;;;;;;;2057775;28;20181;-58
2021/04/04 00:21:44;;;;;;;14.00;6.10;;;;;;;;;;2053255;28;20191;-63
2021/04/04 00:22:45;;;;;;;15.40;5.80;;;;;;;;;;2058065;28;20178;-62
2021/04/04 00:23:45;;;;;;;16.30;6.43;;;;;;;;;;2058876;28;20612;-61
2021/04/04 00:24:45;;;;;;;20.47;6.00;;;;;;;;;;2046437;28;20196;-63
2021/04/04 00:25:46;;;;;;;15.07;6.13;;;;;;;;;;2045518;28;20218;-62
2021/04/04 00:26:46;;;;;;;13.17;5.80;;;;;;;;;;2049313;28;20203;-60
2021/04/04 00:27:46;;;;;;;10.77;5.57;;;;;;;;;;2049112;28;20187;-62
2021/04/04 00:28:47;;;;;;;15.53;5.87;;;;;;;;;;2041338;29;20262;-61
2021/04/04 00:29:47;;;;;;;16.30;6.13;;;;;;;;;;2047532;28;20191;-61
2021/04/04 00:30:47;;;;;;;17.53;5.70;;;;;;;;;;2051484;28;20261;-62
2021/04/04 00:31:47;;;;;;;18.80;6.27;;;;;;;;;;2051410;28;20171;-61
2021/04/04 00:32:48;;;;;;;17.43;6.17;;;;;;;;;;2056773;28;20188;-61
2021/04/04 00:33:48;;;;;;;14.10;5.83;;;;;;;;;;2050514;28;20193;-61
2021/04/04 00:34:49;;;;;;;11.10;5.47;;;;;;;;;;2051436;28;20302;-61
2021/04/04 00:35:49;;;;;;;14.03;5.60;;;;;;;;;;2047890;28;20243;-61
2021/04/04 00:36:50;;;;;;;16.80;6.07;;;;;;;;;;2050894;28;20194;-61
2021/04/04 00:37:50;;;;;;;11.93;5.00;;;;;;;;;;2049470;28;20178;-61
2021/04/04 00:38:50;;;;;;;15.23;5.20;;;;;;;;;;2053465;28;20864;-60
2021/04/04 00:39:51;;;;;;;18.93;5.53;;;;;;;;;;2052823;28;20175;-59
2021/04/04 00:40:51;;;;;;;17.57;6.27;;;;;;;;;;2050573;28;20194;-60
2021/04/04 00:41:51;;;;;;;16.40;5.50;;;;;;;;;;2051679;28;20588;-59
2021/04/04 00:42:51;;;;;;;18.20;6.57;;;;;;;;;;2047076;29;20251;-59
2021/04/04 00:43:52;;;;;;;11.27;5.40;;;;;;;;;;2056412;28;20214;-61
2021/04/04 00:44:52;;;;;;;16.90;6.63;;;;;;;;;;2057403;28;20212;-60
2021/04/04 00:45:52;;;;;;;19.60;6.17;;;;;;;;;;2047091;28;20179;-61
2021/04/04 00:46:53;;;;;;;15.13;6.23;;;;;;;;;;2049860;28;20566;-61
2021/04/04 00:47:53;;;;;;;10.43;5.73;;;;;;;;;;2057159;28;20175;-61
2021/04/04 00:48:54;;;;;;;13.67;6.30;;;;;;;;;;2058490;28;20216;-61
2021/04/04 00:49:54;;;;;;;12.77;5.83;;;;;;;;;;2041952;29;20198;-61
2021/04/04 00:50:54;;;;;;;12.43;5.57;;;;;;;;;;2043219;29;20692;-62
2021/04/04 00:51:55;;;;;;;12.37;5.90;;;;;;;;;;2055385;28;20178;-60
2021/04/04 00:52:56;;;;;;;14.20;5.97;;;;;;;;;;2049200;28;20167;-61
2021/04/04 00:53:56;;;;;;;13.53;5.73;;;;;;;;;;2040210;29;20202;-61
2021/04/04 00:54:56;;;;;;;11.40;5.80;;;;;;;;;;2047695;28;20223;-61
2021/04/04 00:55:57;;;;;;;12.57;5.70;;;;;;;;;;2051370;28;20174;-61
2021/04/04 00:56:57;;;;;;;13.23;5.60;;;;;;;;;;2050432;28;20218;-60
2021/04/04 00:57:57;;;;;;;13.30;5.60;;;;;;;;;;2049996;28;20183;-60
2021/04/04 00:58:58;;;;;;;13.87;5.80;;;;;;;;;;2055705;28;20186;-60
2021/04/04 00:59:59;;;;;;;13.03;5.57;;;;;;;;;;2058560;28;20194;-61
2021/04/04 01:00:59;;;;;;;12.17;4.97;;;;;;;;;;2052542;28;20210;-64
2021/04/04 01:01:59;;;;;;;17.93;5.60;;;;;;;;;;2049013;28;20193;-61
2021/04/04 01:03:00;;;;;;;14.03;5.50;;;;;;;;;;2052130;28;20193;-61
2021/04/04 01:04:00;;;;;;;20.67;5.80;;;;;;;;;;2051893;28;20238;-61
2021/04/04 01:05:02;;;;;;;16.87;5.97;;;;;;;;;;2048587;28;20585;-62
2021/04/04 01:06:06;;;;;;;14.33;5.93;;;;;;;;;;2050119;28;20599;-60
2021/04/04 01:07:06;;;;;;;11.27;5.43;;;;;;;;;;2050555;28;20179;-59
2021/04/04 01:08:07;;;;;;;12.40;5.50;;;;;;;;;;2054534;28;20217;-56
2021/04/04 01:09:08;;;;;;;13.07;5.77;;;;;;;;;;2050715;28;20767;-61
2021/04/04 01:10:09;;;;;;;16.10;5.73;;;;;;;;;;2052688;28;20564;-57
2021/04/04 01:11:11;;;;;;;11.27;6.27;;;;;;;;;;2050411;28;20273;-59
2021/04/04 01:12:30;;;;;;;11.70;5.40;;;;;;;;;;2052525;28;20570;-60
2021/04/04 01:13:51;;;;;;;15.63;6.00;;;;;;;;;;2051737;28;20187;-60
2021/04/04 01:14:56;;;;;;;19.00;5.70;;;;;;;;;;2056012;28;20205;-60
2021/04/04 01:16:00;;;;;;;15.50;5.57;;;;;;;;;;2056338;28;20179;-61
2021/04/04 01:17:02;;;;;;;15.67;5.70;;;;;;;;;;2055180;28;20619;-62
2021/04/04 01:18:13;;;;;;;10.23;5.43;;;;;;;;;;2047534;28;20178;-61
2021/04/04 01:19:31;;;;;;;15.07;5.73;;;;;;;;;;2048144;28;20266;-62
2021/04/04 01:20:38;;;;;;;14.03;6.20;;;;;;;;;;2048976;28;20167;-59
2021/04/04 01:21:39;;;;;;;12.97;6.13;;;;;;;;;;2050653;28;20251;-64
2021/04/04 01:22:41;;;;;;;13.47;5.30;;;;;;;;;;2049644;28;20175;-60
2021/04/04 01:24:01;;;;;;;18.27;5.83;;;;;;;;;;2048074;28;20651;-61
2021/04/04 01:25:36;;;;;;;16.37;5.40;;;;;;;;;;2051938;28;20213;-58
2021/04/04 01:26:42;;;;;;;16.70;6.47;;;;;;;;;;2032253;29;20184;-60
2021/04/04 01:27:44;;;;;;;7.97;4.83;;;;;;;;;;2032028;29;20247;-61
2021/04/04 01:28:44;;;;;;;15.53;6.03;;;;;;;;;;2035578;29;20183;-62
2021/04/04 01:29:45;;;;;;;14.13;5.63;;;;;;;;;;2045921;28;20692;-60
2021/04/04 01:30:46;;;;;;;7.87;5.27;;;;;;;;;;2046723;28;20178;-60
2021/04/04 01:31:47;;;;;;;16.67;5.93;;;;;;;;;;2052730;28;20224;-59
2021/04/04 01:32:49;;;;;;;19.53;6.13;;;;;;;;;;2050655;28;20256;-58
2021/04/04 01:33:52;;;;;;;15.17;6.10;;;;;;;;;;2051250;28;20171;-60
2021/04/04 01:34:52;;;;;;;11.93;5.87;;;;;;;;;;2054549;28;20194;-61
2021/04/04 01:35:54;;;;;;;12.00;6.10;;;;;;;;;;2057693;28;20728;-57
2021/04/04 01:36:56;;;;;;;18.70;6.37;;;;;;;;;;2053728;28;20277;-60
2021/04/04 01:37:58;;;;;;;18.57;6.30;;;;;;;;;;2043903;28;20179;-60
2021/04/04 01:39:00;;;;;;;17.30;6.53;;;;;;;;;;2050694;28;20167;-59
2021/04/04 01:40:01;;;;;;;17.73;6.33;;;;;;;;;;2049046;28;20187;-59
2021/04/04 01:41:09;;;;;;;15.53;6.60;;;;;;;;;;2049914;28;20187;-60
2021/04/04 01:42:11;;;;;;;15.13;6.30;;;;;;;;;;2048704;28;20191;-59
2021/04/04 01:43:12;;;;;;;12.53;5.37;;;;;;;;;;2049751;28;20190;-60
2021/04/04 01:44:17;;;;;;;14.73;6.23;;;;;;;;;;2055282;28;20225;-58
2021/04/04 01:45:19;;;;;;;13.47;6.07;;;;;;;;;;2048244;28;20787;-57
2021/04/04 01:46:20;;;;;;;13.77;5.13;;;;;;;;;;2051225;28;20202;-57
2021/04/04 01:47:21;;;;;;;15.23;6.00;;;;;;;;;;2054091;28;20588;-59
2021/04/04 01:48:21;;;;;;;15.17;5.50;;;;;;;;;;2054963;28;20182;-59
2021/04/04 01:49:22;;;;;;;18.63;6.80;;;;;;;;;;2052960;28;20193;-59
2021/04/04 01:50:23;;;;;;;17.13;7.00;;;;;;;;;;2047224;28;20187;-61
2021/04/04 01:51:24;;;;;;;13.07;5.73;;;;;;;;;;2049378;28;20203;-61
2021/04/04 01:52:26;;;;;;;20.20;6.23;;;;;;;;;;2051220;28;20173;-59
2021/04/04 01:53:26;;;;;;;13.27;6.13;;;;;;;;;;2048709;28;20660;-60
2021/04/04 01:54:27;;;;;;;11.17;5.77;;;;;;;;;;2050635;28;20187;-61
2021/04/04 01:55:28;;;;;;;15.83;6.07;;;;;;;;;;2055482;28;20197;-60
2021/04/04 01:56:29;;;;;;;11.30;4.97;;;;;;;;;;2056377;28;20174;-61
2021/04/04 01:57:30;;;;;;;14.00;5.50;;;;;;;;;;2052189;28;20756;-60
2021/04/04 01:58:31;;;;;;;11.77;5.77;;;;;;;;;;2051448;28;20222;-64
2021/04/04 01:59:32;;;;;;;10.47;5.90;;;;;;;;;;2052003;28;20659;-61
2021/04/04 02:00:32;;;;;;;17.43;6.33;;;;;;;;;;2058780;28;20190;-60
2021/04/04 02:01:33;;;;;;;16.13;5.77;;;;;;;;;;2050750;29;20206;-60
2021/04/04 02:02:33;;;;;;;10.10;5.27;;;;;;;;;;2052150;28;20239;-61
2021/04/04 02:03:34;;;;;;;13.70;4.73;;;;;;;;;;2053707;28;20194;-59
2021/04/04 02:04:37;;;;;;;14.77;5.00;;;;;;;;;;2047766;28;20270;-60
2021/04/04 02:05:37;;;;;;;15.73;6.40;;;;;;;;;;2050984;28;20662;-60
2021/04/04 02:06:38;;;;;;;17.30;5.53;;;;;;;;;;2061484;28;20166;-60
2021/04/04 02:07:40;;;;;;;14.07;5.63;;;;;;;;;;2055753;28;20187;-65
2021/04/04 02:08:41;;;;;;;13.93;5.47;;;;;;;;;;2051883;28;20242;-61
2021/04/04 02:09:42;;;;;;;15.43;5.93;;;;;;;;;;2047532;28;20570;-60
2021/04/04 02:10:42;;;;;;;10.50;5.50;;;;;;;;;;2053225;28;20222;-60
2021/04/04 02:11:43;;;;;;;15.70;5.23;;;;;;;;;;2049666;28;20183;-58
2021/04/04 02:12:44;;;;;;;11.73;5.53;;;;;;;;;;2033696;29;20236;-61
2021/04/04 02:13:45;;;;;;;13.13;6.47;;;;;;;;;;2042417;29;20227;-60
2021/04/04 02:14:47;;;;;;;18.67;10.37;;;;;;;;;;2048498;28;20207;-59
2021/04/04 02:15:47;;;;;;;9.07;4.67;;;;;;;;;;2058834;28;20174;-61
2021/04/04 02:16:50;;;;;;;14.67;5.50;;;;;;;;;;2040905;29;20609;-61
2021/04/04 02:17:50;;;;;;;15.67;7.50;;;;;;;;;;2038043;28;20199;-61
2021/04/04 02:18:50;;;;;;;11.93;7.50;;;;;;;;;;2049038;28;20666;-61
2021/04/04 02:19:51;;;;;;;16.13;6.00;;;;;;;;;;2047784;28;20176;-60
2021/04/04 02:20:54;;;;;;;12.53;5.97;;;;;;;;;;2052767;28;20601;-59
2021/04/04 02:21:56;;;;;;;13.03;8.07;;;;;;;;;;2048614;28;20270;-59
2021/04/04 02:22:58;;;;;;;14.83;6.53;;;;;;;;;;2045716;28;20206;-61
2021/04/04 02:23:59;;;;;;;16.90;6.30;;;;;;;;;;2048472;28;20233;-59
2021/04/04 02:25:00;;;;;;;17.17;6.07;;;;;;;;;;2049260;28;20290;-59
2021/04/04 02:26:00;;;;;;;18.37;5.97;;;;;;;;;;2048660;28;20690;-60
2021/04/04 02:27:01;;;;;;;12.37;5.77;;;;;;;;;;2056880;28;20170;-60
2021/04/04 02:28:01;;;;;;;11.80;4.50;;;;;;;;;;2058385;28;20681;-61
2021/04/04 02:29:03;;;;;;;13.93;4.50;;;;;;;;;;2048770;28;20207;-60
2021/04/04 02:30:04;;;;;;;13.80;6.30;;;;;;;;;;2049143;28;20179;-60
2021/04/04 02:31:04;;;;;;;11.80;4.83;;;;;;;;;;2050865;28;20231;-60
2021/04/04 02:32:07;;;;;;;14.07;5.20;;;;;;;;;;2045632;28;20198;-61
2021/04/04 02:33:15;;;;;;;16.47;5.47;;;;;;;;;;2049018;28;20294;-61
2021/04/04 02:34:18;;;;;;;12.40;5.17;;;;;;;;;;2054499;28;20291;-59
2021/04/04 02:35:21;;;;;;;17.50;5.40;;;;;;;;;;2054542;28;20170;-59
2021/04/04 02:36:23;;;;;;;12.97;5.43;;;;;;;;;;2049342;28;20706;-60
2021/04/04 02:37:23;;;;;;;12.13;5.20;;;;;;;;;;2052004;28;20188;-61
2021/04/04 02:38:27;;;;;;;14.83;5.23;;;;;;;;;;2052383;28;20194;-56
2021/04/04 02:39:28;;;;;;;11.83;5.70;;;;;;;;;;2046413;28;20183;-58
2021/04/04 02:40:31;;;;;;;13.53;5.40;;;;;;;;;;2050659;28;20209;-58
2021/04/04 02:41:31;;;;;;;13.67;5.47;;;;;;;;;;2051771;28;20189;-58
2021/04/04 02:42:33;;;;;;;18.60;5.70;;;;;;;;;;2049026;28;20277;-60
2021/04/04 02:43:35;;;;;;;14.30;4.97;;;;;;;;;;2050695;28;20174;-61
2021/04/04 02:44:36;;;;;;;15.53;5.03;;;;;;;;;;2053671;28;20214;-60
2021/04/04 02:45:36;;;;;;;14.63;5.20;;;;;;;;;;2057358;28;20197;-60
2021/04/04 02:46:38;;;;;;;13.20;5.10;;;;;;;;;;2050770;28;20233;-58
2021/04/04 02:47:42;;;;;;;11.63;5.50;;;;;;;;;;2051943;28;20179;-59
2021/04/04 02:48:57;;;;;;;13.43;5.40;;;;;;;;;;2047429;28;20178;-59
2021/04/04 02:49:58;;;;;;;17.63;5.80;;;;;;;;;;2044026;28;20191;-62
2021/04/04 02:51:02;;;;;;;14.40;5.50;;;;;;;;;;2041576;28;20214;-60
2021/04/04 02:52:04;;;;;;;12.80;5.67;;;;;;;;;;2047917;28;20294;-60
2021/04/04 02:53:06;;;;;;;13.60;5.63;;;;;;;;;;2046233;28;20191;-58
2021/04/04 02:54:07;;;;;;;17.80;5.20;;;;;;;;;;2049762;28;20209;-60
2021/04/04 02:55:08;;;;;;;12.33;5.90;;;;;;;;;;2054933;23;21425;-52
2021/04/04 02:56:09;;;;;;;11.40;5.63;;;;;;;;;;2046786;28;20191;-54
2021/04/04 02:57:09;;;;;;;13.53;5.10;;;;;;;;;;2047307;28;20211;-53
2021/04/04 02:58:10;;;;;;;14.33;5.37;;;;;;;;;;2047671;29;20214;-51
2021/04/04 02:59:25;;;;;;;18.23;5.77;;;;;;;;;;2047318;28;20238;-56
2021/04/04 03:00:26;;;;;;;13.27;6.37;;;;;;;;;;2047193;28;20230;-55
2021/04/04 03:01:30;;;;;;;14.27;5.50;;;;;;;;;;2054519;28;20269;-55
2021/04/04 03:02:31;;;;;;;17.30;6.00;;;;;;;;;;2056117;28;20316;-56
2021/04/04 03:03:31;;;;;;;14.10;5.87;;;;;;;;;;2048146;28;20459;-55
2021/04/04 03:04:34;;;;;;;13.20;5.33;;;;;;;;;;2046223;28;20620;-55
2021/04/04 03:05:35;;;;;;;14.53;6.37;;;;;;;;;;2047894;28;20605;-58
2021/04/04 03:06:39;;;;;;;13.70;5.77;;;;;;;;;;2045588;28;20188;-56
2021/04/04 03:07:40;;;;;;;15.20;6.10;;;;;;;;;;2048775;28;20635;-58
2021/04/04 03:08:43;;;;;;;11.60;6.20;;;;;;;;;;2051533;28;20617;-56
2021/04/04 03:09:45;;;;;;;13.67;5.90;;;;;;;;;;2047424;28;20547;-56
2021/04/04 03:10:50;;;;;;;9.43;5.83;;;;;;;;;;2050053;28;20186;-52
2021/04/04 03:11:50;;;;;;;13.80;5.90;;;;;;;;;;2046413;29;20195;-56
2021/04/04 03:12:52;;;;;;;13.40;5.40;;;;;;;;;;2048633;28;20270;-52
2021/04/04 03:13:53;;;;;;;15.70;5.90;;;;;;;;;;2048377;28;20270;-57
2021/04/04 03:14:56;;;;;;;12.80;5.47;;;;;;;;;;2046500;28;20773;-53
2021/04/04 03:15:56;;;;;;;17.30;5.87;;;;;;;;;;2042116;28;20207;-51
2021/04/04 03:16:57;;;;;;;10.53;5.53;;;;;;;;;;2051947;28;20179;-53
2021/04/04 03:17:58;;;;;;;11.87;5.80;;;;;;;;;;2048886;28;20191;-55
2021/04/04 03:18:59;;;;;;;10.93;4.80;;;;;;;;;;2048260;28;20171;-52
2021/04/04 03:20:00;;;;;;;14.30;6.13;;;;;;;;;;2049327;28;20185;-54
2021/04/04 03:21:01;;;;;;;15.20;5.07;;;;;;;;;;2046062;29;20670;-57
2021/04/04 03:22:01;;;;;;;19.17;5.70;;;;;;;;;;2048926;28;20727;-55
2021/04/04 03:23:02;;;;;;;12.10;5.40;;;;;;;;;;2055459;28;20183;-56
2021/04/04 03:24:04;;;;;;;15.57;5.43;;;;;;;;;;2047027;28;20664;-53
2021/04/04 03:25:06;;;;;;;16.23;5.87;;;;;;;;;;2055882;28;20194;-55
2021/04/04 03:26:06;;;;;;;14.83;5.50;;;;;;;;;;2052457;28;20229;-56
2021/04/04 03:27:07;;;;;;;9.83;5.63;;;;;;;;;;2058539;28;20267;-56
2021/04/04 03:28:07;;;;;;;10.07;5.17;;;;;;;;;;2047922;28;20270;-53
2021/04/04 03:29:08;;;;;;;13.00;5.17;;;;;;;;;;2054536;28;20189;-53
2021/04/04 03:30:34;;;;;;;11.00;4.97;;;;;;;;;;2051638;28;20214;-57
2021/04/04 03:31:30;;;;;;;13.23;4.93;;;;;;;;;;2052981;28;20229;-53
2021/04/04 03:32:30;;;;;;;13.67;5.40;;;;;;;;;;2052579;28;20191;-55
2021/04/04 03:33:31;;;;;;;10.50;5.20;;;;;;;;;;2055680;28;20639;-57
2021/04/04 03:34:32;;;;;;;11.43;5.27;;;;;;;;;;2048980;28;20555;-54
2021/04/04 03:35:33;;;;;;;13.60;5.30;;;;;;;;;;2048582;28;20269;-55
2021/04/04 03:36:34;;;;;;;12.87;5.40;;;;;;;;;;2055747;28;20190;-58
2021/04/04 03:37:34;;;;;;;10.03;5.23;;;;;;;;;;2052170;28;20171;-56
2021/04/04 03:38:35;;;;;;;14.83;5.67;;;;;;;;;;2050465;28;20247;-54
2021/04/04 03:39:35;;;;;;;12.67;5.37;;;;;;;;;;2049704;28;20194;-54
2021/04/04 03:40:36;;;;;;;14.63;5.00;;;;;;;;;;2055738;28;20182;-52
2021/04/04 03:41:36;;;;;;;10.40;4.57;;;;;;;;;;2051356;28;20187;-55
2021/04/04 03:42:36;;;;;;;13.90;4.70;;;;;;;;;;2055796;28;20206;-52
2021/04/04 03:43:37;;;;;;;15.83;5.53;;;;;;;;;;2057542;28;20223;-54
2021/04/04 03:44:39;;;;;;;11.13;4.83;;;;;;;;;;2052450;28;20183;-58
2021/04/04 03:45:39;;;;;;;10.60;4.73;;;;;;;;;;2043543;28;20215;-55
2021/04/04 03:46:40;;;;;;;6.30;4.20;;;;;;;;;;2046053;29;20197;-55
2021/04/04 03:47:40;;;;;;;7.67;4.37;;;;;;;;;;2055828;28;20559;-56
2021/04/04 03:48:44;;;;;;;11.43;4.23;;;;;;;;;;2056823;28;20170;-54
2021/04/04 03:49:44;;;;;;;8.47;4.53;;;;;;;;;;2044013;28;20207;-55
2021/04/04 03:50:46;;;;;;;10.60;4.40;;;;;;;;;;2048246;28;20598;-52
2021/04/04 03:51:46;;;;;;;17.93;5.77;;;;;;;;;;2056297;28;20709;-54
2021/04/04 03:52:47;;;;;;;11.13;5.13;;;;;;;;;;2049698;28;20202;-53
2021/04/04 03:53:48;;;;;;;12.93;4.67;;;;;;;;;;2048458;28;20175;-51
2021/04/04 03:54:49;;;;;;;9.87;4.23;;;;;;;;;;2056996;28;20162;-55
2021/04/04 03:55:59;;;;;;;11.50;4.80;;;;;;;;;;2048617;28;20187;-55
2021/04/04 03:56:59;;;;;;;7.17;4.07;;;;;;;;;;2058287;28;20700;-55
2021/04/04 03:58:01;;;;;;;9.73;3.97;;;;;;;;;;2057303;28;20236;-54
2021/04/04 03:59:03;;;;;;;9.60;4.27;;;;;;;;;;2056863;28;20253;-52
2021/04/04 04:00:06;;;;;;;14.97;4.60;;;;;;;;;;2046102;28;20191;-52
2021/04/04 04:01:13;;;;;;;12.73;4.37;;;;;;;;;;2055123;28;20166;-56
2021/04/04 04:02:15;;;;;;;9.93;4.47;;;;;;;;;;2053180;28;20572;-51
2021/04/04 04:03:16;;;;;;;8.80;4.60;;;;;;;;;;2057351;28;20248;-56
2021/04/04 04:04:18;;;;;;;14.97;4.90;;;;;;;;;;2048108;28;20843;-54
2021/04/04 04:05:20;;;;;;;11.80;4.07;;;;;;;;;;2041189;29;20203;-53
2021/04/04 04:06:21;;;;;;;12.13;4.33;;;;;;;;;;2045467;28;20190;-53
2021/04/04 04:07:21;;;;;;;14.77;5.10;;;;;;;;;;2050099;28;20190;-56
2021/04/04 04:08:21;;;;;;;12.83;5.23;;;;;;;;;;2049840;28;20175;-52
2021/04/04 04:09:22;;;;;;;11.77;4.97;;;;;;;;;;2049415;28;20188;-57
2021/04/04 04:10:23;;;;;;;10.97;4.77;;;;;;;;;;2049178;28;20727;-52
2021/04/04 04:11:23;;;;;;;10.67;3.93;;;;;;;;;;2048264;29;20257;-57
2021/04/04 04:12:25;;;;;;;12.73;4.53;;;;;;;;;;2053903;28;20178;-56
2021/04/04 04:13:28;;;;;;;9.57;4.47;;;;;;;;;;2052092;28;20179;-54
2021/04/04 04:14:29;;;;;;;12.77;4.90;;;;;;;;;;2050998;28;20179;-55
2021/04/04 04:15:30;;;;;;;10.23;4.43;;;;;;;;;;2045199;28;20204;-55
2021/04/04 04:16:30;;;;;;;14.13;5.13;;;;;;;;;;2046175;29;20734;-55
2021/04/04 04:17:31;;;;;;;13.07;4.43;;;;;;;;;;2051494;28;20179;-55
2021/04/04 04:18:31;;;;;;;15.13;4.63;;;;;;;;;;2055311;28;20261;-56
2021/04/04 04:19:31;;;;;;;12.47;4.60;;;;;;;;;;2048827;28;20292;-54
2021/04/04 04:20:32;;;;;;;13.10;5.20;;;;;;;;;;2046753;28;20181;-56
2021/04/04 04:21:33;;;;;;;13.20;4.37;;;;;;;;;;2055601;28;20174;-51
2021/04/04 04:22:33;;;;;;;10.50;4.60;;;;;;;;;;2051545;28;20526;-53
2021/04/04 04:23:34;;;;;;;11.93;4.43;;;;;;;;;;2051348;28;20643;-53
2021/04/04 04:24:35;;;;;;;11.07;4.53;;;;;;;;;;2055505;28;20182;-55
2021/04/04 04:25:36;;;;;;;9.57;4.47;;;;;;;;;;2050908;28;20261;-52
2021/04/04 04:26:43;;;;;;;13.07;5.17;;;;;;;;;;2049391;28;20179;-52
2021/04/04 04:27:43;;;;;;;10.40;5.03;;;;;;;;;;2051313;28;20210;-52
2021/04/04 04:28:45;;;;;;;11.27;5.33;;;;;;;;;;2056695;28;20174;-55
2021/04/04 04:29:46;;;;;;;8.43;4.50;;;;;;;;;;2049117;28;20190;-56
2021/04/04 04:30:48;;;;;;;10.20;4.93;;;;;;;;;;2056287;28;20178;-55
2021/04/04 04:31:52;;;;;;;8.93;4.53;;;;;;;;;;2057718;28;20178;-52
2021/04/04 04:32:54;;;;;;;15.60;5.30;;;;;;;;;;2050700;28;20170;-53
2021/04/04 04:33:56;;;;;;;9.23;4.77;;;;;;;;;;2054623;28;20175;-56
2021/04/04 04:34:57;;;;;;;9.50;5.23;;;;;;;;;;2048712;28;20242;-54
2021/04/04 04:35:57;;;;;;;13.57;4.70;;;;;;;;;;2050048;28;20183;-56
2021/04/04 04:36:58;;;;;;;10.20;4.70;;;;;;;;;;2062070;28;20175;-53
2021/04/04 04:37:59;;;;;;;15.30;5.10;;;;;;;;;;2052967;28;20234;-51
2021/04/04 04:38:59;;;;;;;12.70;5.03;;;;;;;;;;2054741;28;20191;-53
2021/04/04 04:40:02;;;;;;;9.07;4.67;;;;;;;;;;2045031;28;20187;-57
2021/04/04 04:41:03;;;;;;;14.60;5.10;;;;;;;;;;2053841;28;20187;-51
2021/04/04 04:42:03;;;;;;;11.57;4.10;;;;;;;;;;2056112;28;20539;-53
2021/04/04 04:43:06;;;;;;;17.27;5.40;;;;;;;;;;2051240;28;20628;-52
2021/04/04 04:44:07;;;;;;;10.70;4.57;;;;;;;;;;2057157;28;20587;-56
2021/04/04 04:45:11;;;;;;;10.23;4.80;;;;;;;;;;2050120;28;20265;-55
2021/04/04 04:46:15;;;;;;;10.93;4.47;;;;;;;;;;2043510;28;20214;-53
2021/04/04 04:47:15;;;;;;;13.13;5.07;;;;;;;;;;2051566;28;20182;-56
2021/04/04 04:48:16;;;;;;;16.67;5.40;;;;;;;;;;2049233;28;20723;-52
2021/04/04 04:49:16;;;;;;;11.30;5.27;;;;;;;;;;2048846;28;20178;-57
2021/04/04 04:50:16;;;;;;;10.40;5.30;;;;;;;;;;2048929;28;20242;-53
2021/04/04 04:51:21;;;;;;;8.90;4.47;;;;;;;;;;2049296;28;20647;-56
2021/04/04 04:52:24;;;;;;;13.47;5.57;;;;;;;;;;2050493;28;20177;-52
2021/04/04 04:53:25;;;;;;;18.33;5.63;;;;;;;;;;2045842;29;20262;-53
2021/04/04 04:54:25;;;;;;;12.20;5.03;;;;;;;;;;2047397;28;20827;-54
2021/04/04 04:55:26;;;;;;;10.80;4.77;;;;;;;;;;2050377;28;20215;-57
2021/04/04 04:56:27;;;;;;;12.13;5.40;;;;;;;;;;2050295;28;20234;-57
2021/04/04 04:57:27;;;;;;;11.60;5.43;;;;;;;;;;2059143;28;20185;-56
2021/04/04 04:58:28;;;;;;;12.33;4.60;;;;;;;;;;2059602;28;20196;-53
2021/04/04 04:59:29;;;;;;;9.53;5.13;;;;;;;;;;2047091;28;20668;-53
2021/04/04 05:00:30;;;;;;;11.77;4.67;;;;;;;;;;2044783;28;20183;-57
2021/04/04 05:01:33;;;;;;;10.27;5.00;;;;;;;;;;2051736;28;20182;-58
2021/04/04 05:02:34;;;;;;;10.13;4.30;;;;;;;;;;2051282;28;20217;-54
2021/04/04 05:03:35;;;;;;;10.17;4.87;;;;;;;;;;2055224;28;20178;-53
2021/04/04 05:04:35;;;;;;;11.10;5.20;;;;;;;;;;2046837;28;20186;-56
2021/04/04 05:05:35;;;;;;;13.07;5.30;;;;;;;;;;2048768;28;20706;-54
2021/04/04 05:06:36;;;;;;;10.73;5.00;;;;;;;;;;2054953;28;20236;-56
2021/04/04 05:07:37;;;;;;;12.23;5.13;;;;;;;;;;2051415;28;20194;-52
2021/04/04 05:08:47;;;;;;;14.23;5.50;;;;;;;;;;2055173;28;20190;-55
2021/04/04 05:09:48;;;;;;;15.53;6.20;;;;;;;;;;2049130;28;20537;-53
2021/04/04 05:10:50;;;;;;;16.50;4.83;;;;;;;;;;2046056;28;20258;-53
2021/04/04 05:11:51;;;;;;;17.33;6.50;;;;;;;;;;2045082;28;20179;-54
2021/04/04 05:12:55;;;;;;;12.87;5.67;;;;;;;;;;2056941;28;20257;-53
2021/04/04 05:13:55;;;;;;;10.77;4.97;;;;;;;;;;2049234;28;20179;-55
2021/04/04 05:14:55;;;;;;;13.03;5.50;;;;;;;;;;2049998;28;20233;-54
2021/04/04 05:15:57;;;;;;;9.73;5.07;;;;;;;;;;2050902;28;20191;-53
2021/04/04 05:16:57;;;;;;;12.03;5.03;;;;;;;;;;2056558;28;20723;-52
2021/04/04 05:17:57;;;;;;;9.30;4.80;;;;;;;;;;2049302;28;20186;-54
2021/04/04 05:18:58;;;;;;;14.77;5.43;;;;;;;;;;2056330;28;20217;-53
2021/04/04 05:19:59;;;;;;;16.83;5.73;;;;;;;;;;2050262;28;20262;-55
2021/04/04 05:20:59;;;;;;;8.03;5.70;;;;;;;;;;2050214;28;20187;-56
2021/04/04 05:22:00;;;;;;;11.13;4.87;;;;;;;;;;2052634;28;20229;-55
2021/04/04 05:23:01;;;;;;;15.47;5.30;;;;;;;;;;2055147;28;20256;-55
2021/04/04 05:24:04;;;;;;;14.10;5.50;;;;;;;;;;2051105;28;20187;-57
2021/04/04 05:25:05;;;;;;;13.97;5.70;;;;;;;;;;2053748;28;20276;-55
2021/04/04 05:26:05;;;;;;;8.63;5.63;;;;;;;;;;2047697;28;20617;-54
2021/04/04 05:27:06;;;;;;;15.13;6.20;;;;;;;;;;2051024;28;20199;-56
2021/04/04 05:28:06;;;;;;;11.23;5.43;;;;;;;;;;2048727;28;20542;-54
2021/04/04 05:29:08;;;;;;;13.50;5.80;;;;;;;;;;2048663;28;20189;-56
2021/04/04 05:30:10;;;;;;;13.80;5.90;;;;;;;;;;2049111;28;20185;-57
2021/04/04 05:31:11;;;;;;;16.17;6.83;;;;;;;;;;2051277;28;20678;-57
2021/04/04 05:32:11;;;;;;;13.23;5.30;;;;;;;;;;2050084;28;20269;-53
2021/04/04 05:33:12;;;;;;;14.37;6.43;;;;;;;;;;2050441;28;20228;-59
2021/04/04 05:34:13;;;;;;;11.93;5.47;;;;;;;;;;2052526;28;20178;-57
2021/04/04 05:35:24;;;;;;;17.77;6.63;;;;;;;;;;2052487;28;20253;-54
2021/04/04 05:36:25;;;;;;;19.90;6.40;;;;;;;;;;2048014;28;20577;-53
2021/04/04 05:37:25;;;;;;;19.33;6.47;;;;;;;;;;2052919;28;20183;-55
2021/04/04 05:38:25;;;;;;;15.33;6.20;;;;;;;;;;2052153;28;20221;-53
2021/04/04 05:39:26;;;;;;;11.73;6.20;;;;;;;;;;2049739;28;20183;-53
2021/04/04 05:40:27;;;;;;;17.50;6.57;;;;;;;;;;2054328;28;20601;-55
2021/04/04 05:41:32;;;;;;;9.50;5.70;;;;;;;;;;2051325;28;20179;-53
2021/04/04 05:42:33;;;;;;;17.80;6.43;;;;;;;;;;2051524;28;20559;-55
2021/04/04 05:43:40;;;;;;;15.47;6.40;;;;;;;;;;2054691;28;20277;-56
2021/04/04 05:44:45;;;;;;;17.33;6.97;;;;;;;;;;2049208;28;20210;-54
2021/04/04 05:45:55;;;;;;;14.70;6.57;;;;;;;;;;2056126;28;20666;-54
2021/04/04 05:47:00;;;;;;;15.47;7.27;;;;;;;;;;2048070;28;20270;-55
2021/04/04 05:48:19;;;;;;;27.80;6.97;;;;;;;;;;2054493;28;20174;-58
2021/04/04 05:49:28;;;;;;;19.77;6.83;;;;;;;;;;2039061;28;20177;-54
2021/04/04 05:50:37;;;;;;;14.30;6.30;;;;;;;;;;2042227;28;20194;-54
2021/04/04 05:51:41;;;;;;;13.20;6.57;;;;;;;;;;2052726;28;20687;-56
2021/04/04 05:52:45;;;;;;;11.10;6.07;;;;;;;;;;2047052;28;20175;-54
2021/04/04 05:54:04;;;;;;;16.03;6.33;;;;;;;;;;2047457;28;20644;-56
2021/04/04 05:55:16;;;;;;;17.53;7.17;;;;;;;;;;2049805;28;20300;-57
2021/04/04 05:56:42;;;;;;;13.20;6.00;;;;;;;;;;2055598;28;20210;-56
2021/04/04 05:57:52;;;;;;;15.57;6.73;;;;;;;;;;2023191;29;20712;-55
2021/04/04 05:59:06;;;;;;;21.77;6.77;;;;;;;;;;2041907;28;20192;-55
2021/04/04 06:00:07;;;;;;;11.30;6.50;;;;;;;;;;2050967;28;20596;-55
2021/04/04 06:01:36;;;;;;;13.37;5.97;;;;;;;;;;2048125;28;20181;-54
2021/04/04 06:02:45;;;;;;;9.00;5.53;;;;;;;;;;2055348;28;20170;-52
2021/04/04 06:03:56;;;;;;;13.40;6.90;;;;;;;;;;2049009;28;20198;-54
2021/04/04 06:05:05;;;;;;;18.30;7.33;;;;;;;;;;2047227;28;20182;-56
2021/04/04 06:06:05;;;;;;;14.30;6.90;;;;;;;;;;2054262;28;20261;-54
2021/04/04 06:07:09;;;;;;;12.37;7.20;;;;;;;;;;2051248;28;20530;-55
2021/04/04 06:08:15;;;;;;;15.37;6.93;;;;;;;;;;2053862;28;20500;-58